sensor_id;sensor_type;location;lat;lon;timestamp;pressure;altitude;pressure_sealevel;temperature;humidity
11487;BME280;10510;47.942;9.442;2022-07-23T00:00:29;94702.53;;;19.11;100.00
11487;BME280;10510;47.942;9.442;2022-07-23T00:02:29;94709.59;;;19.05;100.00
11487;BME280;10510;47.942;9.442;2022-07-23T00:04:29;94712.13;;;19.00;100.00
11487;BME280;10510;47.942;9.442;2022-07-23T00:06:29;94731.97;;;18.97;100.00
11487;BME280;10510;47.942;9.442;2022-07-23T00:08:30;94737.13;;;18.92;100.00
11487;BME280;10510;47.942;9.442;2022-07-23T00:10:30;94749.56;;;18.92;100.00
11487;BME280;10510;47.942;9.442;2022-07-23T00:12:30;94765.09;;;18.88;100.00
11487;BME280;10510;47.942;9.442;2022-07-23T00:14:31;94775.59;;;18.83;100.00
11487;BME280;10510;47.942;9.442;2022-07-23T00:16:31;94781.81;;;18.77;100.00
11487;BME280;10510;47.942;9.442;2022-07-23T00:18:31;94776.97;;;18.74;100.00
11487;BME280;10510;47.942;9.442;2022-07-23T00:20:32;94788.00;;;18.71;100.00
11487;BME280;10510;47.942;9.442;2022-07-23T00:22:32;94785.56;;;18.69;100.00
11487;BME280;10510;47.942;9.442;2022-07-23T00:24:32;94801.91;;;18.66;100.00
11487;BME280;10510;47.942;9.442;2022-07-23T00:26:33;94804.78;;;18.65;100.00
11487;BME280;10510;47.942;9.442;2022-07-23T00:28:33;94817.44;;;18.63;100.00
11487;BME280;10510;47.942;9.442;2022-07-23T00:30:34;94835.63;;;18.59;100.00
11487;BME280;10510;47.942;9.442;2022-07-23T00:32:51;94857.00;;;18.57;100.00
11487;BME280;10510;47.942;9.442;2022-07-23T00:34:52;94858.97;;;18.50;100.00
11487;BME280;10510;47.942;9.442;2022-07-23T00:36:53;94870.66;;;18.43;100.00
11487;BME280;10510;47.942;9.442;2022-07-23T00:38:54;94872.50;;;18.42;100.00
11487;BME280;10510;47.942;9.442;2022-07-23T00:40:54;94871.13;;;18.39;100.00
11487;BME280;10510;47.942;9.442;2022-07-23T00:42:55;94860.75;;;18.38;100.00
11487;BME280;10510;47.942;9.442;2022-07-23T00:44:55;94865.59;;;18.41;100.00
11487;BME280;10510;47.942;9.442;2022-07-23T00:46:57;94862.50;;;18.44;100.00
11487;BME280;10510;47.942;9.442;2022-07-23T00:48:58;94857.00;;;18.46;100.00
11487;BME280;10510;47.942;9.442;2022-07-23T00:50:58;94854.13;;;18.47;100.00
11487;BME280;10510;47.942;9.442;2022-07-23T00:52:58;94843.31;;;18.49;100.00
11487;BME280;10510;47.942;9.442;2022-07-23T00:54:59;94837.78;;;18.50;100.00
11487;BME280;10510;47.942;9.442;2022-07-23T00:56:59;94818.69;;;18.48;100.00
11487;BME280;10510;47.942;9.442;2022-07-23T00:59:00;94815.81;;;18.50;100.00
11487;BME280;10510;47.942;9.442;2022-07-23T01:01:01;94795.91;;;18.47;100.00
11487;BME280;10510;47.942;9.442;2022-07-23T01:03:01;94783.94;;;18.45;100.00
11487;BME280;10510;47.942;9.442;2022-07-23T01:05:02;94790.72;;;18.41;100.00
11487;BME280;10510;47.942;9.442;2022-07-23T01:07:02;94797.16;;;18.33;100.00
11487;BME280;10510;47.942;9.442;2022-07-23T01:09:05;94779.41;;;18.22;100.00
11487;BME280;10510;47.942;9.442;2022-07-23T01:11:05;94763.22;;;18.18;100.00
11487;BME280;10510;47.942;9.442;2022-07-23T01:13:08;94768.94;;;18.15;100.00
11487;BME280;10510;47.942;9.442;2022-07-23T01:15:09;94772.41;;;18.15;100.00
11487;BME280;10510;47.942;9.442;2022-07-23T01:17:09;94778.69;;;18.14;100.00
11487;BME280;10510;47.942;9.442;2022-07-23T01:19:10;94766.53;;;18.13;100.00
11487;BME280;10510;47.942;9.442;2022-07-23T01:21:12;94750.06;;;18.11;100.00
11487;BME280;10510;47.942;9.442;2022-07-23T01:23:15;94750.31;;;18.10;100.00
11487;BME280;10510;47.942;9.442;2022-07-23T01:25:15;94739.94;;;18.08;100.00
11487;BME280;10510;47.942;9.442;2022-07-23T01:27:15;94734.09;;;18.06;100.00
11487;BME280;10510;47.942;9.442;2022-07-23T01:29:17;94725.56;;;18.04;100.00
11487;BME280;10510;47.942;9.442;2022-07-23T01:31:18;94710.97;;;18.02;100.00
11487;BME280;10510;47.942;9.442;2022-07-23T01:33:19;94701.66;;;17.99;100.00
11487;BME280;10510;47.942;9.442;2022-07-23T01:35:19;94692.31;;;17.97;100.00
11487;BME280;10510;47.942;9.442;2022-07-23T01:37:19;94696.00;;;17.96;100.00
11487;BME280;10510;47.942;9.442;2022-07-23T01:39:20;94693.59;;;17.94;100.00
11487;BME280;10510;47.942;9.442;2022-07-23T01:41:20;94689.13;;;17.95;100.00
11487;BME280;10510;47.942;9.442;2022-07-23T01:43:21;94698.53;;;17.90;100.00
11487;BME280;10510;47.942;9.442;2022-07-23T01:45:21;94697.13;;;17.88;100.00
11487;BME280;10510;47.942;9.442;2022-07-23T01:47:21;94707.38;;;17.84;100.00
11487;BME280;10510;47.942;9.442;2022-07-23T01:49:22;94705.97;;;17.82;100.00
11487;BME280;10510;47.942;9.442;2022-07-23T01:51:22;94703.56;;;17.80;100.00
11487;BME280;10510;47.942;9.442;2022-07-23T01:53:22;94708.06;;;17.80;100.00
11487;BME280;10510;47.942;9.442;2022-07-23T01:55:22;94720.44;;;17.79;100.00
11487;BME280;10510;47.942;9.442;2022-07-23T01:57:23;94724.13;;;17.78;100.00
11487;BME280;10510;47.942;9.442;2022-07-23T01:59:23;94732.28;;;17.77;100.00
11487;BME280;10510;47.942;9.442;2022-07-23T02:01:24;94742.00;;;17.76;100.00
11487;BME280;10510;47.942;9.442;2022-07-23T02:03:24;94741.44;;;17.74;100.00
11487;BME280;10510;47.942;9.442;2022-07-23T02:05:25;94729.84;;;17.75;100.00
11487;BME280;10510;47.942;9.442;2022-07-23T02:07:26;94732.72;;;17.74;100.00
11487;BME280;10510;47.942;9.442;2022-07-23T02:09:26;94739.47;;;17.69;100.00
11487;BME280;10510;47.942;9.442;2022-07-23T02:11:26;94738.88;;;17.67;100.00
11487;BME280;10510;47.942;9.442;2022-07-23T02:13:27;94732.00;;;17.66;100.00
11487;BME280;10510;47.942;9.442;2022-07-23T02:15:29;94731.41;;;17.64;100.00
11487;BME280;10510;47.942;9.442;2022-07-23T02:17:29;94712.09;;;17.64;100.00
11487;BME280;10510;47.942;9.442;2022-07-23T02:19:30;94701.78;;;17.62;100.00
11487;BME280;10510;47.942;9.442;2022-07-23T02:21:30;94721.28;;;17.61;100.00
11487;BME280;10510;47.942;9.442;2022-07-23T02:23:30;94732.28;;;17.58;100.00
11487;BME280;10510;47.942;9.442;2022-07-23T02:25:31;94735.19;;;17.57;100.00
11487;BME280;10510;47.942;9.442;2022-07-23T02:27:31;94738.84;;;17.56;100.00
11487;BME280;10510;47.942;9.442;2022-07-23T02:29:31;94744.34;;;17.54;100.00
11487;BME280;10510;47.942;9.442;2022-07-23T02:31:32;94750.88;;;17.52;100.00
11487;BME280;10510;47.942;9.442;2022-07-23T02:33:33;94755.59;;;17.49;100.00
11487;BME280;10510;47.942;9.442;2022-07-23T02:35:33;94768.44;;;17.46;100.00
11487;BME280;10510;47.942;9.442;2022-07-23T02:37:33;94771.06;;;17.46;100.00
11487;BME280;10510;47.942;9.442;2022-07-23T02:39:37;94770.47;;;17.44;100.00
11487;BME280;10510;47.942;9.442;2022-07-23T02:41:37;94779.44;;;17.43;100.00
11487;BME280;10510;47.942;9.442;2022-07-23T02:43:37;94777.59;;;17.43;100.00
11487;BME280;10510;47.942;9.442;2022-07-23T02:45:38;94771.53;;;17.43;100.00
11487;BME280;10510;47.942;9.442;2022-07-23T02:47:38;94769.91;;;17.42;100.00
11487;BME280;10510;47.942;9.442;2022-07-23T02:49:38;94766.69;;;17.40;100.00
11487;BME280;10510;47.942;9.442;2022-07-23T02:51:39;94766.69;;;17.40;100.00
11487;BME280;10510;47.942;9.442;2022-07-23T02:53:39;94765.66;;;17.41;100.00
11487;BME280;10510;47.942;9.442;2022-07-23T02:55:39;94766.25;;;17.43;100.00
11487;BME280;10510;47.942;9.442;2022-07-23T02:57:40;94754.88;;;17.42;100.00
11487;BME280;10510;47.942;9.442;2022-07-23T02:59:40;94734.09;;;17.46;100.00
11487;BME280;10510;47.942;9.442;2022-07-23T03:01:40;94709.72;;;17.44;100.00
11487;BME280;10510;47.942;9.442;2022-07-23T03:03:40;94701.81;;;17.44;100.00
11487;BME280;10510;47.942;9.442;2022-07-23T03:05:41;94690.22;;;17.45;100.00
11487;BME280;10510;47.942;9.442;2022-07-23T03:07:47;94679.66;;;17.45;100.00
11487;BME280;10510;47.942;9.442;2022-07-23T03:09:48;94678.84;;;17.44;100.00
11487;BME280;10510;47.942;9.442;2022-07-23T03:11:48;94679.66;;;17.45;100.00
11487;BME280;10510;47.942;9.442;2022-07-23T03:13:48;94701.59;;;17.45;100.00
11487;BME280;10510;47.942;9.442;2022-07-23T03:15:48;94720.28;;;17.44;100.00
11487;BME280;10510;47.942;9.442;2022-07-23T03:17:49;94725.56;;;17.44;100.00
11487;BME280;10510;47.942;9.442;2022-07-23T03:19:49;94722.13;;;17.43;100.00
11487;BME280;10510;47.942;9.442;2022-07-23T03:21:49;94729.84;;;17.45;100.00
11487;BME280;10510;47.942;9.442;2022-07-23T03:23:49;94754.44;;;17.45;100.00
11487;BME280;10510;47.942;9.442;2022-07-23T03:25:50;94779.81;;;17.46;100.00
11487;BME280;10510;47.942;9.442;2022-07-23T03:27:50;94821.88;;;17.48;100.00
11487;BME280;10510;47.942;9.442;2022-07-23T03:29:51;94834.91;;;17.43;100.00
11487;BME280;10510;47.942;9.442;2022-07-23T03:31:52;94822.75;;;17.42;100.00
11487;BME280;10510;47.942;9.442;2022-07-23T03:33:52;94764.63;;;17.42;100.00
11487;BME280;10510;47.942;9.442;2022-07-23T03:35:52;94754.06;;;17.42;100.00
11487;BME280;10510;47.942;9.442;2022-07-23T03:37:53;94761.41;;;17.40;100.00
11487;BME280;10510;47.942;9.442;2022-07-23T03:39:53;94740.28;;;17.40;100.00
11487;BME280;10510;47.942;9.442;2022-07-23T03:41:53;94738.88;;;17.37;100.00
11487;BME280;10510;47.942;9.442;2022-07-23T03:43:53;94723.28;;;17.36;100.00
11487;BME280;10510;47.942;9.442;2022-07-23T03:45:54;94709.81;;;17.37;100.00
11487;BME280;10510;47.942;9.442;2022-07-23T03:47:54;94696.84;;;17.36;100.00
11487;BME280;10510;47.942;9.442;2022-07-23T03:49:54;94691.56;;;17.36;100.00
11487;BME280;10510;47.942;9.442;2022-07-23T03:51:54;94688.78;;;17.31;100.00
11487;BME280;10510;47.942;9.442;2022-07-23T03:53:55;94693.47;;;17.29;100.00
11487;BME280;10510;47.942;9.442;2022-07-23T03:55:55;94701.41;;;17.29;100.00
11487;BME280;10510;47.942;9.442;2022-07-23T03:57:56;94704.03;;;17.29;100.00
11487;BME280;10510;47.942;9.442;2022-07-23T03:59:56;94704.28;;;17.27;100.00
11487;BME280;10510;47.942;9.442;2022-07-23T04:01:56;94691.06;;;17.27;100.00
11487;BME280;10510;47.942;9.442;2022-07-23T04:03:57;94697.38;;;17.26;100.00
11487;BME280;10510;47.942;9.442;2022-07-23T04:05:57;94699.44;;;17.24;100.00
11487;BME280;10510;47.942;9.442;2022-07-23T04:07:57;94715.75;;;17.21;100.00
11487;BME280;10510;47.942;9.442;2022-07-23T04:09:58;94740.75;;;17.18;100.00
11487;BME280;10510;47.942;9.442;2022-07-23T04:11:58;94764.28;;;17.20;100.00
11487;BME280;10510;47.942;9.442;2022-07-23T04:13:58;94803.09;;;17.19;100.00
11487;BME280;10510;47.942;9.442;2022-07-23T04:15:59;94822.81;;;17.17;100.00
11487;BME280;10510;47.942;9.442;2022-07-23T04:17:59;94854.94;;;17.14;100.00
11487;BME280;10510;47.942;9.442;2022-07-23T04:19:59;94847.09;;;17.07;100.00
11487;BME280;10510;47.942;9.442;2022-07-23T04:21:59;94851.19;;;17.03;100.00
11487;BME280;10510;47.942;9.442;2022-07-23T04:24:00;94817.28;;;17.00;100.00
11487;BME280;10510;47.942;9.442;2022-07-23T04:26:00;94796.16;;;17.00;100.00
11487;BME280;10510;47.942;9.442;2022-07-23T04:28:00;94751.53;;;16.98;100.00
11487;BME280;10510;47.942;9.442;2022-07-23T04:30:01;94733.84;;;16.99;100.00
11487;BME280;10510;47.942;9.442;2022-07-23T04:32:01;94712.72;;;16.99;100.00
11487;BME280;10510;47.942;9.442;2022-07-23T04:34:02;94713.78;;;16.98;100.00
11487;BME280;10510;47.942;9.442;2022-07-23T04:36:02;94709.94;;;16.94;100.00
11487;BME280;10510;47.942;9.442;2022-07-23T04:38:03;94714.66;;;16.92;100.00
11487;BME280;10510;47.942;9.442;2022-07-23T04:40:04;94720.94;;;16.91;100.00
11487;BME280;10510;47.942;9.442;2022-07-23T04:42:04;94737.38;;;16.93;100.00
11487;BME280;10510;47.942;9.442;2022-07-23T04:44:05;94752.41;;;16.92;100.00
11487;BME280;10510;47.942;9.442;2022-07-23T04:46:05;94775.38;;;16.92;100.00
11487;BME280;10510;47.942;9.442;2022-07-23T04:48:06;94805.84;;;16.88;100.00
11487;BME280;10510;47.942;9.442;2022-07-23T04:50:06;94820.06;;;16.87;100.00
11487;BME280;10510;47.942;9.442;2022-07-23T04:52:07;94832.84;;;16.90;100.00
11487;BME280;10510;47.942;9.442;2022-07-23T04:54:07;94859.44;;;16.88;100.00
11487;BME280;10510;47.942;9.442;2022-07-23T04:56:07;94876.13;;;16.82;100.00
11487;BME280;10510;47.942;9.442;2022-07-23T04:58:08;94877.41;;;16.79;100.00
11487;BME280;10510;47.942;9.442;2022-07-23T05:00:09;94875.56;;;16.80;100.00
11487;BME280;10510;47.942;9.442;2022-07-23T05:02:09;94887.53;;;16.83;100.00
11487;BME280;10510;47.942;9.442;2022-07-23T05:04:10;94881.41;;;16.82;100.00
11487;BME280;10510;47.942;9.442;2022-07-23T05:06:10;94881.22;;;16.84;100.00
11487;BME280;10510;47.942;9.442;2022-07-23T05:08:10;94868.81;;;16.84;100.00
11487;BME280;10510;47.942;9.442;2022-07-23T05:10:10;94873.91;;;16.86;100.00
11487;BME280;10510;47.942;9.442;2022-07-23T05:12:11;94882.19;;;16.89;100.00
11487;BME280;10510;47.942;9.442;2022-07-23T05:14:11;94876.47;;;16.92;100.00
11487;BME280;10510;47.942;9.442;2022-07-23T05:16:12;94872.78;;;16.93;100.00
11487;BME280;10510;47.942;9.442;2022-07-23T05:18:13;94868.31;;;16.94;100.00
11487;BME280;10510;47.942;9.442;2022-07-23T05:20:13;94854.69;;;16.97;100.00
11487;BME280;10510;47.942;9.442;2022-07-23T05:22:13;94852.44;;;17.00;100.00
11487;BME280;10510;47.942;9.442;2022-07-23T05:24:14;94830.06;;;17.03;100.00
11487;BME280;10510;47.942;9.442;2022-07-23T05:26:14;94802.19;;;17.07;100.00
11487;BME280;10510;47.942;9.442;2022-07-23T05:28:14;94784.31;;;17.09;100.00
11487;BME280;10510;47.942;9.442;2022-07-23T05:30:15;94773.38;;;17.06;100.00
11487;BME280;10510;47.942;9.442;2022-07-23T05:32:15;94778.09;;;17.03;100.00
11487;BME280;10510;47.942;9.442;2022-07-23T05:34:15;94784.38;;;17.02;100.00
11487;BME280;10510;47.942;9.442;2022-07-23T05:36:16;94785.19;;;17.03;100.00
11487;BME280;10510;47.942;9.442;2022-07-23T05:38:16;94769.94;;;17.05;100.00
11487;BME280;10510;47.942;9.442;2022-07-23T05:40:16;94755.72;;;17.06;100.00
11487;BME280;10510;47.942;9.442;2022-07-23T05:42:16;94748.38;;;17.08;100.00
11487;BME280;10510;47.942;9.442;2022-07-23T05:44:17;94731.28;;;17.11;100.00
11487;BME280;10510;47.942;9.442;2022-07-23T05:46:17;94745.66;;;17.15;100.00
11487;BME280;10510;47.942;9.442;2022-07-23T05:48:17;94757.38;;;17.19;100.00
11487;BME280;10510;47.942;9.442;2022-07-23T05:50:18;94753.50;;;17.21;100.00
11487;BME280;10510;47.942;9.442;2022-07-23T05:52:18;94771.75;;;17.23;100.00
11487;BME280;10510;47.942;9.442;2022-07-23T05:54:18;94777.44;;;17.27;100.00
11487;BME280;10510;47.942;9.442;2022-07-23T05:56:19;94767.22;;;17.30;100.00
11487;BME280;10510;47.942;9.442;2022-07-23T05:58:19;94777.09;;;17.35;100.00
11487;BME280;10510;47.942;9.442;2022-07-23T06:00:19;94755.75;;;17.36;100.00
11487;BME280;10510;47.942;9.442;2022-07-23T06:02:20;94755.53;;;17.38;100.00
11487;BME280;10510;47.942;9.442;2022-07-23T06:04:20;94742.13;;;17.39;100.00
11487;BME280;10510;47.942;9.442;2022-07-23T06:06:20;94732.34;;;17.40;100.00
11487;BME280;10510;47.942;9.442;2022-07-23T06:08:20;94742.69;;;17.41;100.00
11487;BME280;10510;47.942;9.442;2022-07-23T06:10:21;94756.47;;;17.43;100.00
11487;BME280;10510;47.942;9.442;2022-07-23T06:12:21;94752.81;;;17.44;100.00
11487;BME280;10510;47.942;9.442;2022-07-23T06:14:21;94752.38;;;17.47;100.00
11487;BME280;10510;47.942;9.442;2022-07-23T06:16:22;94758.00;;;17.51;100.00
11487;BME280;10510;47.942;9.442;2022-07-23T06:18:22;94761.25;;;17.53;100.00
11487;BME280;10510;47.942;9.442;2022-07-23T06:20:22;94756.88;;;17.59;100.00
11487;BME280;10510;47.942;9.442;2022-07-23T06:22:23;94749.09;;;17.64;100.00
11487;BME280;10510;47.942;9.442;2022-07-23T06:24:23;94752.91;;;17.68;100.00
11487;BME280;10510;47.942;9.442;2022-07-23T06:26:23;94761.78;;;17.74;100.00
11487;BME280;10510;47.942;9.442;2022-07-23T06:28:23;94767.00;;;17.80;100.00
11487;BME280;10510;47.942;9.442;2022-07-23T06:30:24;94767.50;;;17.89;100.00
11487;BME280;10510;47.942;9.442;2022-07-23T06:32:24;94762.75;;;18.21;100.00
11487;BME280;10510;47.942;9.442;2022-07-23T06:34:24;94765.50;;;18.38;100.00
11487;BME280;10510;47.942;9.442;2022-07-23T06:36:25;94781.88;;;18.70;100.00
11487;BME280;10510;47.942;9.442;2022-07-23T06:38:25;94781.22;;;18.98;100.00
11487;BME280;10510;47.942;9.442;2022-07-23T06:40:25;94794.19;;;19.12;100.00
11487;BME280;10510;47.942;9.442;2022-07-23T06:42:25;94800.75;;;19.33;100.00
11487;BME280;10510;47.942;9.442;2022-07-23T06:44:26;94802.28;;;19.69;100.00
11487;BME280;10510;47.942;9.442;2022-07-23T06:46:26;94816.94;;;20.00;100.00
11487;BME280;10510;47.942;9.442;2022-07-23T06:48:27;94810.09;;;20.33;100.00
11487;BME280;10510;47.942;9.442;2022-07-23T06:50:28;94804.00;;;20.66;100.00
11487;BME280;10510;47.942;9.442;2022-07-23T06:52:29;94804.81;;;20.83;100.00
11487;BME280;10510;47.942;9.442;2022-07-23T06:54:29;94802.25;;;20.89;100.00
11487;BME280;10510;47.942;9.442;2022-07-23T06:56:29;94805.78;;;20.77;100.00
11487;BME280;10510;47.942;9.442;2022-07-23T06:58:29;94799.41;;;20.61;100.00
11487;BME280;10510;47.942;9.442;2022-07-23T07:00:30;94789.06;;;20.60;100.00
11487;BME280;10510;47.942;9.442;2022-07-23T07:02:31;94796.75;;;20.61;100.00
11487;BME280;10510;47.942;9.442;2022-07-23T07:04:31;94798.44;;;20.51;100.00
11487;BME280;10510;47.942;9.442;2022-07-23T07:06:32;94805.81;;;20.49;100.00
11487;BME280;10510;47.942;9.442;2022-07-23T07:08:32;94810.38;;;20.65;100.00
11487;BME280;10510;47.942;9.442;2022-07-23T07:10:32;94803.63;;;20.74;100.00
11487;BME280;10510;47.942;9.442;2022-07-23T07:12:33;94809.94;;;20.90;100.00
11487;BME280;10510;47.942;9.442;2022-07-23T07:14:33;94821.91;;;21.09;100.00
11487;BME280;10510;47.942;9.442;2022-07-23T07:16:33;94826.34;;;21.21;100.00
11487;BME280;10510;47.942;9.442;2022-07-23T07:18:33;94832.25;;;21.45;100.00
11487;BME280;10510;47.942;9.442;2022-07-23T07:20:34;94827.13;;;21.60;100.00
11487;BME280;10510;47.942;9.442;2022-07-23T07:22:34;94833.69;;;21.74;100.00
11487;BME280;10510;47.942;9.442;2022-07-23T07:24:34;94829.38;;;21.68;100.00
11487;BME280;10510;47.942;9.442;2022-07-23T07:26:35;94825.72;;;21.74;100.00
11487;BME280;10510;47.942;9.442;2022-07-23T07:28:35;94835.97;;;21.88;100.00
11487;BME280;10510;47.942;9.442;2022-07-23T07:30:35;94838.75;;;21.98;100.00
11487;BME280;10510;47.942;9.442;2022-07-23T07:32:36;94848.09;;;22.00;100.00
11487;BME280;10510;47.942;9.442;2022-07-23T07:34:36;94836.59;;;21.95;100.00
11487;BME280;10510;47.942;9.442;2022-07-23T07:36:37;94849.31;;;21.93;100.00
11487;BME280;10510;47.942;9.442;2022-07-23T07:38:37;94843.44;;;21.91;100.00
11487;BME280;10510;47.942;9.442;2022-07-23T07:40:37;94845.00;;;21.87;100.00
11487;BME280;10510;47.942;9.442;2022-07-23T07:42:48;94849.03;;;21.89;100.00
11487;BME280;10510;47.942;9.442;2022-07-23T07:44:49;94850.44;;;21.75;100.00
11487;BME280;10510;47.942;9.442;2022-07-23T07:46:50;94849.31;;;21.93;100.00
11487;BME280;10510;47.942;9.442;2022-07-23T07:48:50;94862.78;;;22.08;100.00
11487;BME280;10510;47.942;9.442;2022-07-23T07:50:51;94855.59;;;22.09;100.00
11487;BME280;10510;47.942;9.442;2022-07-23T07:52:51;94862.38;;;21.94;100.00
11487;BME280;10510;47.942;9.442;2022-07-23T07:54:51;94858.72;;;21.78;100.00
11487;BME280;10510;47.942;9.442;2022-07-23T07:56:52;94860.78;;;21.71;100.00
11487;BME280;10510;47.942;9.442;2022-07-23T07:58:52;94858.34;;;21.70;100.00
11487;BME280;10510;47.942;9.442;2022-07-23T08:00:52;94863.06;;;21.63;100.00
11487;BME280;10510;47.942;9.442;2022-07-23T08:02:54;94865.75;;;21.46;100.00
11487;BME280;10510;47.942;9.442;2022-07-23T08:04:54;94863.44;;;21.32;100.00
11487;BME280;10510;47.942;9.442;2022-07-23T08:06:57;94868.97;;;21.31;100.00
11487;BME280;10510;47.942;9.442;2022-07-23T08:08:57;94874.59;;;21.35;100.00
11487;BME280;10510;47.942;9.442;2022-07-23T08:10:57;94876.56;;;21.39;100.00
11487;BME280;10510;47.942;9.442;2022-07-23T08:12:58;94878.81;;;21.30;100.00
11487;BME280;10510;47.942;9.442;2022-07-23T08:15:00;94890.56;;;21.35;100.00
11487;BME280;10510;47.942;9.442;2022-07-23T08:17:01;94892.19;;;21.36;100.00
11487;BME280;10510;47.942;9.442;2022-07-23T08:19:01;94892.19;;;21.36;100.00
11487;BME280;10510;47.942;9.442;2022-07-23T08:21:01;94905.13;;;21.32;100.00
11487;BME280;10510;47.942;9.442;2022-07-23T08:23:07;94898.00;;;21.32;100.00
11487;BME280;10510;47.942;9.442;2022-07-23T08:25:07;94891.72;;;21.22;100.00
11487;BME280;10510;47.942;9.442;2022-07-23T08:27:08;94895.25;;;21.10;100.00
11487;BME280;10510;47.942;9.442;2022-07-23T08:29:08;94899.78;;;21.10;100.00
11487;BME280;10510;47.942;9.442;2022-07-23T08:31:08;94898.63;;;21.06;100.00
11487;BME280;10510;47.942;9.442;2022-07-23T08:33:13;94908.81;;;21.09;100.00
11487;BME280;10510;47.942;9.442;2022-07-23T08:35:14;94893.22;;;21.18;100.00
11487;BME280;10510;47.942;9.442;2022-07-23T08:37:14;94890.91;;;21.21;100.00
11487;BME280;10510;47.942;9.442;2022-07-23T08:39:14;94892.44;;;21.17;100.00
11487;BME280;10510;47.942;9.442;2022-07-23T08:41:15;94899.19;;;21.08;100.00
11487;BME280;10510;47.942;9.442;2022-07-23T08:43:24;94903.72;;;21.07;100.00
11487;BME280;10510;47.942;9.442;2022-07-23T08:45:25;94902.13;;;21.06;100.00
11487;BME280;10510;47.942;9.442;2022-07-23T08:47:26;94902.91;;;21.07;100.00
11487;BME280;10510;47.942;9.442;2022-07-23T08:49:26;94904.34;;;21.15;100.00
11487;BME280;10510;47.942;9.442;2022-07-23T08:51:28;94902.50;;;21.15;100.00
11487;BME280;10510;47.942;9.442;2022-07-23T08:53:30;94907.66;;;21.22;100.00
11487;BME280;10510;47.942;9.442;2022-07-23T08:55:30;94901.53;;;21.38;100.00
11487;BME280;10510;47.942;9.442;2022-07-23T08:57:31;94905.41;;;21.47;100.00
11487;BME280;10510;47.942;9.442;2022-07-23T08:59:31;94909.28;;;21.62;100.00
11487;BME280;10510;47.942;9.442;2022-07-23T09:01:32;94908.75;;;21.60;100.00
11487;BME280;10510;47.942;9.442;2022-07-23T09:03:34;94914.50;;;21.73;100.00
11487;BME280;10510;47.942;9.442;2022-07-23T09:05:35;94905.69;;;21.90;100.00
11487;BME280;10510;47.942;9.442;2022-07-23T09:07:35;94915.72;;;22.05;100.00
11487;BME280;10510;47.942;9.442;2022-07-23T09:09:36;94911.81;;;22.12;100.00
11487;BME280;10510;47.942;9.442;2022-07-23T09:11:36;94909.69;;;22.14;100.00
11487;BME280;10510;47.942;9.442;2022-07-23T09:13:40;94906.88;;;22.21;100.00
11487;BME280;10510;47.942;9.442;2022-07-23T09:15:52;94908.72;;;22.20;100.00
11487;BME280;10510;47.942;9.442;2022-07-23T09:17:53;94903.91;;;22.17;100.00
11487;BME280;10510;47.942;9.442;2022-07-23T09:22:26;94908.94;;;21.97;100.00
11487;BME280;10510;47.942;9.442;2022-07-23T09:24:27;94909.22;;;21.95;100.00
11487;BME280;10510;47.942;9.442;2022-07-23T09:28:32;94910.00;;;21.96;100.00
11487;BME280;10510;47.942;9.442;2022-07-23T09:30:32;94910.50;;;21.93;100.00
11487;BME280;10510;47.942;9.442;2022-07-23T09:32:34;94905.69;;;21.90;100.00
11487;BME280;10510;47.942;9.442;2022-07-23T09:34:36;94899.31;;;21.91;100.00
11487;BME280;10510;47.942;9.442;2022-07-23T09:36:40;94901.34;;;22.06;100.00
11487;BME280;10510;47.942;9.442;2022-07-23T09:38:50;94896.16;;;22.16;100.00
11487;BME280;10510;47.942;9.442;2022-07-23T09:41:10;94900.06;;;22.30;100.00
11487;BME280;10510;47.942;9.442;2022-07-23T09:43:12;94895.69;;;22.46;100.00
11487;BME280;10510;47.942;9.442;2022-07-23T09:45:12;94893.53;;;22.43;100.00
11487;BME280;10510;47.942;9.442;2022-07-23T09:47:12;94893.16;;;22.61;100.00
11487;BME280;10510;47.942;9.442;2022-07-23T09:49:18;94893.50;;;22.70;100.00
11487;BME280;10510;47.942;9.442;2022-07-23T09:51:20;94902.91;;;22.78;100.00
11487;BME280;10510;47.942;9.442;2022-07-23T09:53:29;94900.19;;;22.73;100.00
11487;BME280;10510;47.942;9.442;2022-07-23T09:55:34;94911.47;;;22.80;100.00
11487;BME280;10510;47.942;9.442;2022-07-23T09:57:40;94913.13;;;22.91;100.00
11487;BME280;10510;47.942;9.442;2022-07-23T09:59:42;94921.97;;;22.92;100.00
11487;BME280;10510;47.942;9.442;2022-07-23T10:01:43;94915.16;;;22.79;100.00
11487;BME280;10510;47.942;9.442;2022-07-23T10:03:44;94912.28;;;22.80;100.00
11487;BME280;10510;47.942;9.442;2022-07-23T10:05:46;94923.78;;;22.86;100.00
11487;BME280;10510;47.942;9.442;2022-07-23T10:07:47;94920.84;;;22.87;100.00
11487;BME280;10510;47.942;9.442;2022-07-23T10:09:48;94918.47;;;22.91;100.00
11487;BME280;10510;47.942;9.442;2022-07-23T10:11:55;94923.38;;;22.99;100.00
11487;BME280;10510;47.942;9.442;2022-07-23T10:14:00;94908.97;;;22.95;100.00
11487;BME280;10510;47.942;9.442;2022-07-23T10:16:04;94910.47;;;22.91;100.00
11487;BME280;10510;47.942;9.442;2022-07-23T10:18:05;94912.34;;;22.90;100.00
11487;BME280;10510;47.942;9.442;2022-07-23T10:20:06;94903.22;;;22.81;100.00
11487;BME280;10510;47.942;9.442;2022-07-23T10:22:24;94903.13;;;22.71;100.00
11487;BME280;10510;47.942;9.442;2022-07-23T10:26:54;94890.88;;;22.43;100.00
11487;BME280;10510;47.942;9.442;2022-07-23T10:31:19;94883.03;;;22.31;100.00
11487;BME280;10510;47.942;9.442;2022-07-23T10:36:07;94893.75;;;22.36;100.00
11487;BME280;10510;47.942;9.442;2022-07-23T10:38:15;94892.38;;;22.34;100.00
11487;BME280;10510;47.942;9.442;2022-07-23T10:40:20;94902.22;;;22.33;100.00
11487;BME280;10510;47.942;9.442;2022-07-23T10:42:33;94898.78;;;22.38;100.00
11487;BME280;10510;47.942;9.442;2022-07-23T10:44:41;94897.28;;;22.47;100.00